LSMALSME

Guest
Details From LSMA - Alpnach
To LSME - Emmen
Flight Number -
Tags Routegen Generated
Created
Modified
Stats Distance 17 nm / 32 km
Max Altitude 100 ft / 30 m
Waypoints 5
Social Downloads 0
Likes 0
Share VATSIM

Download

Looking for another format? Having issues loading an existing format? Contact us
Advertisement - Login to hide

Notes

Departing runway 0 LSMA. Arriving runway 3 LSME.

Route

LSMA +47.02_+008.30 +47.09_+008.34 +47.16_+008.38 LSME

ID Type Via Altitude Latitude Longitude Leg Dist Tot Dist Heading (true) Name
O LSMA APT - 0 ft / 0 m 46.95000˚ 8.28667˚ - 0 nm - -
+47.02_+008.30 LATLON - 100 ft / 30 m 47.02133˚ 8.30453˚ 4 nm 4 nm 10° / 10° -
+47.09_+008.34 LATLON - 100 ft / 30 m 47.09000˚ 8.34225˚ 4 nm 8 nm 21° / 21° -
+47.16_+008.38 LATLON - 100 ft / 30 m 47.15868˚ 8.37996˚ 4 nm 13 nm 20° / 21° -
O LSME APT - 0 ft / 0 m 47.10129˚ 8.31517˚ 4 nm 17 nm 218° / 218° -

Altitude Profile

Advertisement - Login to hide

LSMA

Details ICAO LSMA
Name Alpnach
Region Switzerland
Timezone Europe/Zurich (UTC+1.0)
Stats Elevation 1,460 ft / 445 m (AMSL)
Location 46.943334° 8.285000°
Runways 1
Magnetic Variation 2.279° E

METAR

LSMA 171650Z AUTO 22002KT 7000NDV BKN071 OVC082 M00/M01 Q1027 RMK

Decode

TAF

Not found

Departure Runways

ID Width Length Bearing (true) Bearing (mag) Surface Threshold Offset Overrun Length
01 130 ft / 40 m 4,936 ft / 1,504 m 9.69° 7.41° Asphalt 0 ft / 0 m 328 ft / 100 m
19 130 ft / 40 m 4,936 ft / 1,504 m 189.69° 187.41° Asphalt 0 ft / 0 m 1,640 ft / 500 m

LSME

Details ICAO LSME
Name Emmen
Region Switzerland
Timezone Europe/Zurich (UTC+1.0)
Stats Elevation 1,400 ft / 427 m (AMSL)
Location 47.092369° 8.305118°
Runways 1
Magnetic Variation 2.285° E

METAR

LSME 171650Z AUTO VRB01KT 9999NDV SCT056 OVC079 00/M01 Q1027 RMK

Decode

TAF

Not found

Destination Runways

ID Width Length Bearing (true) Bearing (mag) Surface Threshold Offset Overrun Length
04 130 ft / 40 m 8,202 ft / 2,500 m 37.49° 35.21° Asphalt 363 ft / 111 m 810 ft / 247 m
22 130 ft / 40 m 8,202 ft / 2,500 m 217.51° 215.23° Asphalt 596 ft / 182 m 747 ft / 228 m

Approach Navaids

Runway Type Ident Frequency Range Bearing (true) Bearing (mag) Slope Elevation
22 Localiser IEM 110.35 MHz 18 nm / 33 km 217.57° 215.28° - 1,400 ft / 427 m (AMSL)
22 Glidescope IEM 110.35 MHz 10 nm / 19 km 217.50° 215.21° 4.00° 1,406 ft / 429 m (AMSL)
22 DME IEM 110.35 MHz 18 nm / 33 km - - - 1,406 ft / 429 m (AMSL)